createdAt,value
2017-11-05T00:00:24.627Z,0
2017-11-05T00:01:05.041Z,0
2017-11-05T00:01:45.451Z,0
2017-11-05T00:02:25.888Z,0
2017-11-05T00:03:06.229Z,0
2017-11-05T00:03:46.617Z,0
2017-11-05T00:04:27.261Z,0
2017-11-05T00:05:08.683Z,0
2017-11-05T00:05:48.259Z,0
2017-11-05T00:06:28.599Z,0
2017-11-05T00:07:09.078Z,0
2017-11-05T00:07:49.525Z,0
2017-11-05T00:08:29.942Z,0
2017-11-05T00:09:10.385Z,0
2017-11-05T00:09:50.760Z,0
2017-11-05T00:10:31.192Z,0
2017-11-05T00:11:11.637Z,0
2017-11-05T00:11:52.017Z,0
2017-11-05T00:12:32.630Z,0
2017-11-05T00:13:13.079Z,0
2017-11-05T00:13:53.555Z,0
2017-11-05T00:14:34.038Z,0
2017-11-05T00:15:14.439Z,0
2017-11-05T00:15:54.911Z,0
2017-11-05T00:16:35.331Z,0
2017-11-05T00:17:15.806Z,0
2017-11-05T00:17:56.176Z,0
2017-11-05T00:18:36.623Z,0
2017-11-05T00:19:16.914Z,0
2017-11-05T00:19:57.360Z,0
2017-11-05T00:20:37.754Z,0
2017-11-05T00:21:18.181Z,0
2017-11-05T00:21:58.634Z,0
2017-11-05T00:22:39.932Z,0
2017-11-05T00:23:20.355Z,0
2017-11-05T00:24:00.738Z,0
2017-11-05T00:24:41.238Z,0
2017-11-05T00:25:21.588Z,0
2017-11-05T00:26:01.946Z,0
2017-11-05T00:26:42.468Z,0
2017-11-05T00:27:22.747Z,0
2017-11-05T00:28:03.234Z,0
2017-11-05T00:28:43.710Z,0
2017-11-05T00:29:24.154Z,0
2017-11-05T00:30:04.581Z,0
2017-11-05T00:30:44.990Z,0
2017-11-05T00:31:25.418Z,0
2017-11-05T00:32:05.820Z,0
2017-11-05T00:32:46.190Z,0
2017-11-05T00:33:26.611Z,0
2017-11-05T00:34:07.160Z,0
2017-11-05T00:34:47.404Z,0
2017-11-05T00:35:27.816Z,0
2017-11-05T00:36:08.225Z,0
2017-11-05T00:36:48.680Z,0
2017-11-05T00:37:29.097Z,0
2017-11-05T00:38:09.503Z,0
2017-11-05T00:38:49.907Z,0
2017-11-05T00:39:30.361Z,0
2017-11-05T00:40:10.758Z,0
2017-11-05T00:40:51.559Z,0
2017-11-05T00:41:32.022Z,0
2017-11-05T00:42:12.396Z,0
2017-11-05T00:42:52.845Z,0
2017-11-05T00:43:33.144Z,0
2017-11-05T00:44:13.594Z,0
2017-11-05T00:44:54.026Z,0
2017-11-05T00:45:34.419Z,0
2017-11-05T00:46:14.855Z,0
2017-11-05T00:46:55.313Z,0
2017-11-05T00:47:35.720Z,0
2017-11-05T00:48:16.114Z,0
2017-11-05T00:48:56.509Z,0
2017-11-05T00:49:36.847Z,0
2017-11-05T00:50:17.295Z,0
2017-11-05T00:50:57.664Z,0
2017-11-05T00:51:38.112Z,0
2017-11-05T00:52:18.548Z,0
2017-11-05T00:52:59.213Z,0
2017-11-05T00:53:39.607Z,0
2017-11-05T00:54:20.030Z,0
2017-11-05T00:55:00.403Z,0
2017-11-05T00:55:40.837Z,0
2017-11-05T00:56:21.301Z,0
2017-11-05T00:57:01.658Z,0
2017-11-05T00:57:42.075Z,0
2017-11-05T00:58:22.580Z,0
2017-11-05T00:59:02.992Z,0
2017-11-05T00:59:43.496Z,0
2017-11-05T01:00:23.958Z,0
2017-11-05T01:01:04.376Z,0
2017-11-05T01:01:44.831Z,0
2017-11-05T01:02:25.282Z,0
2017-11-05T01:03:05.679Z,0
2017-11-05T01:03:46.043Z,0
2017-11-05T01:04:26.460Z,0
2017-11-05T01:05:07.021Z,0
2017-11-05T01:05:47.381Z,0
2017-11-05T01:06:27.833Z,0
2017-11-05T01:07:08.284Z,0
2017-11-05T01:07:48.654Z,0
2017-11-05T01:08:29.024Z,0
2017-11-05T01:09:09.467Z,0
2017-11-05T01:09:49.928Z,0
2017-11-05T01:10:30.303Z,0
2017-11-05T01:11:10.741Z,0
2017-11-05T01:11:51.160Z,0
2017-11-05T01:12:31.758Z,0
2017-11-05T01:13:12.188Z,0
2017-11-05T01:13:52.842Z,0
2017-11-05T01:14:33.247Z,0
2017-11-05T01:15:13.744Z,0
2017-11-05T01:15:54.286Z,0
2017-11-05T01:16:34.791Z,0
2017-11-05T01:17:15.191Z,0
2017-11-05T01:17:55.613Z,0
2017-11-05T01:18:35.992Z,0
2017-11-05T01:19:18.876Z,0
2017-11-05T01:19:59.222Z,0
2017-11-05T01:20:39.591Z,0
2017-11-05T01:21:20.074Z,0
2017-11-05T01:22:00.365Z,0
2017-11-05T01:22:40.876Z,0
2017-11-05T01:23:21.316Z,0
2017-11-05T01:24:01.717Z,0
2017-11-05T01:24:42.261Z,0
2017-11-05T01:25:22.636Z,0
2017-11-05T01:26:03.174Z,0
2017-11-05T01:26:43.640Z,0
2017-11-05T01:27:24.075Z,0
2017-11-05T01:28:04.512Z,0
2017-11-05T01:28:44.904Z,0
2017-11-05T01:29:25.201Z,0
2017-11-05T01:30:05.716Z,0
2017-11-05T01:30:46.082Z,0
2017-11-05T01:31:26.493Z,0
2017-11-05T01:32:06.872Z,0
2017-11-05T01:32:47.425Z,0
2017-11-05T01:33:27.876Z,0
2017-11-05T01:34:08.329Z,0
2017-11-05T01:34:48.891Z,0
2017-11-05T01:35:29.326Z,0
2017-11-05T01:36:09.796Z,0
2017-11-05T01:36:50.283Z,0
2017-11-05T01:37:30.747Z,0
2017-11-05T01:38:11.100Z,0
2017-11-05T01:38:51.542Z,0
2017-11-05T01:39:31.848Z,0
2017-11-05T01:40:12.352Z,0
2017-11-05T01:40:52.812Z,0
2017-11-05T01:41:33.295Z,0
2017-11-05T01:42:13.778Z,0
2017-11-05T01:42:54.280Z,0
2017-11-05T01:43:34.711Z,0
2017-11-05T01:44:15.169Z,0
2017-11-05T01:44:55.536Z,0
2017-11-05T01:45:36.126Z,0
2017-11-05T01:46:16.416Z,0
2017-11-05T01:46:56.909Z,0
2017-11-05T01:47:37.328Z,0
2017-11-05T01:48:17.650Z,0
2017-11-05T01:48:58.121Z,0
2017-11-05T01:49:38.644Z,0
2017-11-05T01:50:19.003Z,0
2017-11-05T01:50:59.448Z,0
2017-11-05T01:51:39.872Z,0
2017-11-05T01:52:20.418Z,0
2017-11-05T01:53:00.961Z,0
2017-11-05T01:53:41.374Z,0
2017-11-05T01:54:21.699Z,0
2017-11-05T01:55:02.198Z,0
2017-11-05T01:55:42.597Z,0
2017-11-05T01:56:23.022Z,0
2017-11-05T01:57:03.440Z,0
2017-11-05T01:57:43.834Z,0
2017-11-05T01:58:24.262Z,0
2017-11-05T01:59:04.841Z,0
2017-11-05T01:59:45.204Z,0
2017-11-05T02:00:25.780Z,0
2017-11-05T02:01:06.035Z,0
2017-11-05T02:01:46.571Z,0
2017-11-05T02:02:27.060Z,0
2017-11-05T02:03:07.432Z,0
2017-11-05T02:03:47.894Z,0
2017-11-05T02:04:28.252Z,0
2017-11-05T02:05:08.746Z,0
2017-11-05T02:05:49.166Z,0
2017-11-05T02:06:29.574Z,0
2017-11-05T02:07:10.109Z,0
2017-11-05T02:07:50.463Z,0
2017-11-05T02:08:30.892Z,0
2017-11-05T02:09:11.256Z,0
2017-11-05T02:09:51.688Z,0
2017-11-05T02:10:32.108Z,0
2017-11-05T02:11:12.639Z,0
2017-11-05T02:11:53.057Z,0
2017-11-05T02:12:33.462Z,0
2017-11-05T02:13:13.884Z,0
2017-11-05T02:13:54.534Z,0
2017-11-05T02:14:34.897Z,0
2017-11-05T02:15:15.360Z,0
2017-11-05T02:15:55.807Z,0
2017-11-05T02:16:36.318Z,0
2017-11-05T02:17:16.683Z,0
2017-11-05T02:17:57.131Z,0
2017-11-05T02:18:37.498Z,0
2017-11-05T02:19:17.869Z,0
2017-11-05T02:19:58.389Z,0
2017-11-05T02:20:38.855Z,0
2017-11-05T02:21:19.273Z,0
2017-11-05T02:21:59.565Z,0
2017-11-05T02:22:39.985Z,0
2017-11-05T02:23:20.473Z,0
2017-11-05T02:24:00.898Z,0
2017-11-05T02:24:41.255Z,0
2017-11-05T02:25:21.743Z,0
2017-11-05T02:26:02.132Z,0
2017-11-05T02:26:42.572Z,0
2017-11-05T02:27:22.941Z,0
2017-11-05T02:28:03.367Z,0
2017-11-05T02:28:43.826Z,0
2017-11-05T02:29:24.175Z,0
2017-11-05T02:30:04.649Z,0
2017-11-05T02:30:45.028Z,0
2017-11-05T02:31:25.504Z,0
2017-11-05T02:32:05.853Z,0
2017-11-05T02:32:46.269Z,0
2017-11-05T02:33:26.683Z,0
2017-11-05T02:34:07.018Z,0
2017-11-05T02:34:47.745Z,0
2017-11-05T02:35:28.174Z,0
2017-11-05T02:36:08.652Z,0
2017-11-05T02:36:49.095Z,0
2017-11-05T02:37:29.523Z,0
2017-11-05T02:38:09.889Z,0
2017-11-05T02:38:50.396Z,0
2017-11-05T02:39:30.769Z,0
2017-11-05T02:40:11.214Z,0
2017-11-05T02:40:51.608Z,0
2017-11-05T02:41:32.213Z,0
2017-11-05T02:42:12.772Z,0
2017-11-05T02:42:53.144Z,0
2017-11-05T02:43:33.498Z,0
2017-11-05T02:44:13.936Z,0
2017-11-05T02:44:54.473Z,0
2017-11-05T02:45:34.885Z,0
2017-11-05T02:46:15.291Z,0
2017-11-05T02:46:55.703Z,0
2017-11-05T02:47:36.150Z,0
2017-11-05T02:48:16.609Z,0
2017-11-05T02:48:56.993Z,0
2017-11-05T02:49:37.394Z,0
2017-11-05T02:50:17.811Z,0
2017-11-05T02:50:58.196Z,0
2017-11-05T02:51:38.628Z,0
2017-11-05T02:52:19.082Z,0
2017-11-05T02:52:59.451Z,0
2017-11-05T02:53:39.800Z,0
2017-11-05T02:54:20.155Z,0
2017-11-05T02:55:00.649Z,0
2017-11-05T02:55:41.040Z,0
2017-11-05T02:56:21.626Z,0
2017-11-05T02:57:02.194Z,0
2017-11-05T02:57:42.658Z,0
2017-11-05T02:58:23.015Z,0
2017-11-05T02:59:03.390Z,0
2017-11-05T02:59:43.806Z,0
2017-11-05T03:00:24.265Z,0
2017-11-05T03:01:04.781Z,0
2017-11-05T03:01:45.157Z,0
2017-11-05T03:02:25.525Z,0
2017-11-05T03:03:06.058Z,0
2017-11-05T03:03:46.473Z,0
2017-11-05T03:04:26.920Z,0
2017-11-05T03:05:07.441Z,0
2017-11-05T03:05:47.743Z,0
2017-11-05T03:06:28.254Z,0
2017-11-05T03:07:08.776Z,0
2017-11-05T03:07:49.322Z,0
2017-11-05T03:08:29.726Z,0
2017-11-05T03:09:10.235Z,0
2017-11-05T03:09:50.554Z,0
2017-11-05T03:10:31.112Z,0
2017-11-05T03:11:11.539Z,0
2017-11-05T03:11:52.051Z,0
2017-11-05T03:12:32.476Z,0
2017-11-05T03:13:12.866Z,0
2017-11-05T03:13:53.262Z,0
2017-11-05T03:14:33.665Z,0
2017-11-05T03:15:14.093Z,0
2017-11-05T03:15:54.478Z,0
2017-11-05T03:16:34.956Z,0
2017-11-05T03:17:15.325Z,0
2017-11-05T03:17:55.734Z,0
2017-11-05T03:18:36.172Z,0
2017-11-05T03:19:16.590Z,0
2017-11-05T03:19:56.936Z,0
2017-11-05T03:20:37.308Z,0
2017-11-05T03:21:17.761Z,0
2017-11-05T03:21:58.204Z,0
2017-11-05T03:22:38.699Z,0
2017-11-05T03:23:19.043Z,0
2017-11-05T03:23:59.389Z,0
2017-11-05T03:24:39.891Z,0
2017-11-05T03:25:20.278Z,0
2017-11-05T03:26:00.743Z,0
2017-11-05T03:26:41.046Z,0
2017-11-05T03:27:21.484Z,0
2017-11-05T03:28:02.018Z,0
2017-11-05T03:28:42.296Z,0
2017-11-05T03:29:22.818Z,0
2017-11-05T03:30:03.194Z,0
2017-11-05T03:30:43.615Z,0
2017-11-05T03:31:24.101Z,0
2017-11-05T03:32:04.523Z,0
2017-11-05T03:32:44.967Z,0
2017-11-05T03:33:25.390Z,0
2017-11-05T03:34:05.851Z,0
2017-11-05T03:34:46.274Z,0
2017-11-05T03:35:26.745Z,0
2017-11-05T03:36:07.207Z,0
2017-11-05T03:36:47.678Z,0
2017-11-05T03:37:28.102Z,0
2017-11-05T03:38:08.456Z,0
2017-11-05T03:38:48.868Z,0
2017-11-05T03:39:29.327Z,0
2017-11-05T03:40:09.785Z,0
2017-11-05T03:40:50.228Z,0
2017-11-05T03:41:30.609Z,0
2017-11-05T03:42:10.950Z,0
2017-11-05T03:42:51.466Z,0
2017-11-05T03:43:31.855Z,0
2017-11-05T03:44:12.270Z,0
2017-11-05T03:44:52.657Z,0
2017-11-05T03:45:33.282Z,0
2017-11-05T03:46:13.812Z,0
2017-11-05T03:46:54.285Z,0
2017-11-05T03:47:34.682Z,0
2017-11-05T03:48:15.184Z,0
2017-11-05T03:48:55.608Z,0
2017-11-05T03:49:35.883Z,0
2017-11-05T03:50:16.378Z,0
2017-11-05T03:50:56.799Z,0
2017-11-05T03:51:37.229Z,0
2017-11-05T03:52:17.734Z,0
2017-11-05T03:52:58.071Z,0
2017-11-05T03:53:38.541Z,0
2017-11-05T03:54:18.926Z,0
2017-11-05T03:54:59.475Z,0
2017-11-05T03:55:39.766Z,0
2017-11-05T03:56:20.225Z,0
2017-11-05T03:57:00.585Z,0
2017-11-05T03:57:41.045Z,0
2017-11-05T03:58:21.487Z,0
2017-11-05T03:59:01.915Z,0
2017-11-05T03:59:42.367Z,0
2017-11-05T04:00:22.848Z,0
2017-11-05T04:01:03.291Z,0
2017-11-05T04:01:43.714Z,0
2017-11-05T04:02:24.111Z,0
2017-11-05T04:03:04.545Z,0
2017-11-05T04:40:56.517Z,0
2017-11-05T04:41:38.775Z,0
2017-11-05T04:42:19.401Z,0
2017-11-05T04:42:59.913Z,0
2017-11-05T04:43:40.375Z,0
2017-11-05T04:44:20.763Z,0
2017-11-05T04:45:02.003Z,0
2017-11-05T04:45:42.369Z,0
2017-11-05T04:46:22.788Z,0
2017-11-05T04:47:03.251Z,0
2017-11-05T04:47:43.703Z,0
2017-11-05T04:48:24.357Z,0
2017-11-05T04:49:04.803Z,0
2017-11-05T04:49:45.292Z,0
2017-11-05T04:50:26.107Z,0
2017-11-05T04:51:06.436Z,0
2017-11-05T04:51:46.952Z,0
2017-11-05T04:52:27.986Z,0
2017-11-05T04:53:08.467Z,0
2017-11-05T04:53:48.860Z,0
2017-11-05T04:54:29.281Z,0
2017-11-05T04:55:10.021Z,0
2017-11-05T04:55:51.685Z,0
2017-11-05T04:56:31.900Z,0
2017-11-05T04:57:12.356Z,0
2017-11-05T04:57:54.012Z,0
2017-11-05T04:58:34.366Z,0
2017-11-05T04:59:15.177Z,0
2017-11-05T04:59:55.737Z,0
2017-11-05T05:00:36.052Z,0
2017-11-05T05:01:16.652Z,0
2017-11-05T05:01:57.099Z,0
2017-11-05T05:02:37.603Z,0
2017-11-05T05:03:17.885Z,0
2017-11-05T05:03:58.370Z,0
2017-11-05T05:04:38.719Z,0
2017-11-05T05:05:19.156Z,0
2017-11-05T05:05:59.542Z,0
2017-11-05T05:06:40.060Z,0
2017-11-05T05:07:20.553Z,0
2017-11-05T05:08:01.035Z,0
2017-11-05T05:08:42.297Z,0
2017-11-05T05:09:22.948Z,0
2017-11-05T05:10:03.303Z,0
2017-11-05T05:10:43.787Z,0
2017-11-05T05:11:24.965Z,0
2017-11-05T05:12:05.377Z,0
2017-11-05T05:12:45.815Z,0
2017-11-05T05:13:26.547Z,0
2017-11-05T05:14:06.998Z,0
2017-11-05T05:14:47.387Z,0
2017-11-05T05:15:27.773Z,0
2017-11-05T05:16:08.132Z,0
2017-11-05T05:16:48.535Z,0
2017-11-05T05:17:28.907Z,0
2017-11-05T05:18:10.441Z,0
2017-11-05T05:18:51.491Z,0
2017-11-05T05:19:32.338Z,0
2017-11-05T05:20:12.747Z,0
2017-11-05T05:20:53.788Z,0
2017-11-05T05:21:34.465Z,0
2017-11-05T05:22:15.020Z,0
2017-11-05T05:22:55.418Z,0
2017-11-05T05:23:35.950Z,0
2017-11-05T05:24:16.431Z,0
2017-11-05T05:24:56.842Z,0
2017-11-05T05:25:37.361Z,0
2017-11-05T05:26:17.958Z,0
2017-11-05T05:26:58.444Z,0
2017-11-05T05:27:38.788Z,0
2017-11-05T05:28:19.179Z,0
2017-11-05T05:29:00.227Z,0
2017-11-05T05:29:40.746Z,0
2017-11-05T05:30:21.147Z,0
2017-11-05T05:31:01.560Z,0
2017-11-05T05:31:41.952Z,0
2017-11-05T05:32:22.339Z,0
2017-11-05T05:33:03.059Z,0
2017-11-05T05:33:43.284Z,0
2017-11-05T05:34:24.762Z,0
2017-11-05T05:35:05.248Z,0
2017-11-05T05:35:46.339Z,0
2017-11-05T05:36:26.887Z,0
2017-11-05T05:37:07.912Z,0
2017-11-05T05:37:49.301Z,0
2017-11-05T05:38:29.708Z,0
2017-11-05T05:39:10.137Z,0
2017-11-05T05:39:50.583Z,0
2017-11-05T05:40:31.024Z,0
2017-11-05T05:41:11.438Z,0
2017-11-05T05:41:51.900Z,0
2017-11-05T05:42:32.377Z,0
2017-11-05T05:43:12.746Z,0
2017-11-05T05:43:53.287Z,0
2017-11-05T05:44:33.866Z,0
2017-11-05T05:45:14.256Z,0
2017-11-05T05:45:54.708Z,0
2017-11-05T05:46:35.199Z,0
2017-11-05T05:47:15.549Z,0
2017-11-05T05:47:56.400Z,0
2017-11-05T05:48:37.009Z,0
2017-11-05T05:49:17.451Z,0
2017-11-05T05:49:57.735Z,0
2017-11-05T05:50:38.205Z,0
2017-11-05T05:51:18.747Z,0
2017-11-05T05:51:59.205Z,0
2017-11-05T05:52:39.718Z,0
2017-11-05T05:53:20.214Z,0
2017-11-05T05:54:00.637Z,0
2017-11-05T05:54:41.039Z,0
2017-11-05T05:55:21.544Z,0
2017-11-05T05:56:01.936Z,0
2017-11-05T05:56:42.342Z,0
2017-11-05T05:57:22.733Z,0
2017-11-05T05:58:03.304Z,0
2017-11-05T05:58:43.777Z,0
2017-11-05T05:59:24.224Z,0
2017-11-05T06:00:04.975Z,0
2017-11-05T06:00:45.569Z,0
2017-11-05T06:01:26.115Z,0
2017-11-05T06:02:06.601Z,0
2017-11-05T06:02:47.204Z,0
2017-11-05T06:03:27.663Z,0
2017-11-05T06:04:08.059Z,0
2017-11-05T06:04:48.893Z,0
2017-11-05T06:05:29.226Z,0
2017-11-05T06:06:09.725Z,0
2017-11-05T06:06:50.278Z,0
2017-11-05T06:07:30.850Z,0
2017-11-05T06:08:11.134Z,0
2017-11-05T06:08:51.658Z,0
2017-11-05T06:09:32.103Z,0
2017-11-05T06:10:12.430Z,0
2017-11-05T06:10:53.255Z,0
2017-11-05T06:11:33.650Z,0
2017-11-05T06:12:14.125Z,0
2017-11-05T06:12:55.213Z,0
2017-11-05T06:13:35.990Z,0
2017-11-05T06:14:16.485Z,0
2017-11-05T06:14:56.776Z,0
2017-11-05T06:15:37.288Z,0
2017-11-05T06:16:17.656Z,0
2017-11-05T06:16:58.141Z,0
2017-11-05T06:17:38.485Z,0
2017-11-05T06:18:18.922Z,0
2017-11-05T06:18:59.314Z,0
2017-11-05T06:19:39.693Z,0
2017-11-05T06:20:20.154Z,0
2017-11-05T06:21:00.521Z,0
2017-11-05T06:21:40.947Z,0
2017-11-05T06:22:21.427Z,0
2017-11-05T06:23:02.091Z,0
2017-11-05T06:23:42.503Z,0
2017-11-05T06:24:22.971Z,0
2017-11-05T06:25:03.618Z,0
2017-11-05T06:25:44.008Z,0
2017-11-05T06:26:24.535Z,0
2017-11-05T06:27:05.118Z,0
2017-11-05T06:27:45.597Z,0
2017-11-05T06:28:26.232Z,0
2017-11-05T06:29:06.632Z,0
2017-11-05T06:29:47.075Z,0
2017-11-05T06:30:27.589Z,0
2017-11-05T06:31:07.903Z,0
2017-11-05T06:31:48.445Z,0
2017-11-05T06:32:28.993Z,0
2017-11-05T06:33:09.444Z,0
2017-11-05T06:33:50.200Z,0
2017-11-05T06:34:30.558Z,0
2017-11-05T06:35:10.986Z,0
2017-11-05T06:35:51.373Z,0
2017-11-05T06:36:31.771Z,0
2017-11-05T06:37:12.339Z,0
2017-11-05T06:37:52.784Z,0
2017-11-05T06:38:33.104Z,0
2017-11-05T06:39:13.548Z,0
2017-11-05T06:39:53.940Z,0
2017-11-05T06:40:34.514Z,0
2017-11-05T06:41:14.968Z,0
2017-11-05T06:41:55.378Z,0
2017-11-05T06:42:35.694Z,0
2017-11-05T06:43:16.201Z,0
2017-11-05T06:43:56.523Z,0
2017-11-05T06:44:37.020Z,0
2017-11-05T06:45:17.458Z,0
2017-11-05T06:45:57.830Z,0
2017-11-05T06:46:38.292Z,0
2017-11-05T06:47:18.557Z,0
2017-11-05T06:47:59.048Z,0
2017-11-05T06:48:39.424Z,0
2017-11-05T06:49:19.848Z,0
2017-11-05T06:50:00.216Z,0
2017-11-05T06:50:40.759Z,0
2017-11-05T06:51:21.209Z,0
2017-11-05T06:52:01.616Z,0
2017-11-05T06:52:42.100Z,0
2017-11-05T06:53:22.560Z,0
2017-11-05T06:54:03.295Z,0
2017-11-05T06:54:43.783Z,0
2017-11-05T06:55:24.171Z,0
2017-11-05T06:56:04.661Z,0
2017-11-05T06:56:45.040Z,0
2017-11-05T06:57:25.463Z,0
2017-11-05T06:58:06.892Z,0
2017-11-05T06:58:47.896Z,0
2017-11-05T06:59:27.998Z,0
2017-11-05T07:00:08.488Z,0
2017-11-05T07:00:49.156Z,0
2017-11-05T07:01:30.327Z,0
2017-11-05T07:02:10.833Z,0
2017-11-05T07:02:51.318Z,0
2017-11-05T07:03:31.728Z,0
2017-11-05T07:04:12.097Z,0
2017-11-05T07:04:52.495Z,0
2017-11-05T07:05:32.940Z,0
2017-11-05T07:06:13.301Z,0
2017-11-05T07:06:53.737Z,0
2017-11-05T07:07:34.133Z,0
2017-11-05T07:08:14.639Z,0
2017-11-05T07:08:55.013Z,0
2017-11-05T07:09:35.369Z,0
2017-11-05T07:10:15.832Z,0
2017-11-05T07:10:56.286Z,0
2017-11-05T07:11:36.732Z,0
2017-11-05T07:12:17.194Z,0
2017-11-05T07:12:57.610Z,0
2017-11-05T07:13:38.389Z,0
2017-11-05T07:14:18.904Z,0
2017-11-05T07:14:59.438Z,0
2017-11-05T07:15:39.831Z,0
2017-11-05T07:16:20.912Z,0
2017-11-05T07:17:01.235Z,0
2017-11-05T07:17:41.831Z,0
2017-11-05T07:18:22.355Z,0
2017-11-05T07:19:02.804Z,0
2017-11-05T07:19:43.341Z,0
2017-11-05T07:20:23.805Z,0
2017-11-05T07:21:04.839Z,0
2017-11-05T07:21:45.238Z,0
2017-11-05T07:22:25.706Z,0
2017-11-05T07:23:06.071Z,0
2017-11-05T07:23:46.999Z,0
2017-11-05T07:24:27.416Z,0
2017-11-05T07:25:07.954Z,0
2017-11-05T07:25:48.265Z,0
2017-11-05T07:26:28.955Z,0
2017-11-05T07:27:09.280Z,0
2017-11-05T07:27:49.761Z,0
2017-11-05T07:28:30.209Z,0
2017-11-05T07:29:10.639Z,0
2017-11-05T07:29:51.175Z,0
2017-11-05T07:30:31.713Z,0
2017-11-05T07:31:12.129Z,0
2017-11-05T07:31:52.539Z,0
2017-11-05T07:32:32.896Z,0
2017-11-05T07:33:13.376Z,0
2017-11-05T07:33:53.958Z,0
2017-11-05T07:34:34.303Z,0
2017-11-05T07:35:14.777Z,0
2017-11-05T07:35:55.106Z,0
2017-11-05T07:36:35.684Z,0
2017-11-05T07:37:15.984Z,0
2017-11-05T07:37:56.552Z,0
2017-11-05T07:38:36.946Z,0
2017-11-05T07:39:17.526Z,0
2017-11-05T07:39:58.987Z,0
2017-11-05T07:40:39.362Z,0
2017-11-05T07:41:19.814Z,0
2017-11-05T07:42:00.197Z,0
2017-11-05T07:42:40.973Z,0
2017-11-05T07:43:21.235Z,0
2017-11-05T07:44:01.655Z,0
2017-11-05T07:44:42.691Z,0
2017-11-05T07:45:23.063Z,0
2017-11-05T07:46:03.554Z,0
2017-11-05T07:46:45.053Z,0
2017-11-05T07:47:25.769Z,0
2017-11-05T07:48:06.204Z,0
2017-11-05T07:48:46.671Z,0
2017-11-05T07:49:27.218Z,0
2017-11-05T07:50:07.568Z,0
2017-11-05T07:50:48.043Z,0
2017-11-05T07:51:28.536Z,0
2017-11-05T07:52:08.857Z,0
2017-11-05T07:52:49.826Z,0
2017-11-05T07:53:30.189Z,0
2017-11-05T07:54:11.087Z,0
2017-11-05T07:54:51.843Z,0
2017-11-05T07:55:32.120Z,0
2017-11-05T07:56:12.755Z,0
2017-11-05T07:56:53.084Z,0
2017-11-05T07:57:33.634Z,0
2017-11-05T07:58:14.029Z,0
2017-11-05T07:58:54.417Z,0
2017-11-05T07:59:34.781Z,0
2017-11-05T08:00:15.321Z,0
2017-11-05T08:00:55.763Z,0
2017-11-05T08:01:37.273Z,0
2017-11-05T08:02:17.693Z,0
2017-11-05T08:02:59.373Z,0
2017-11-05T08:03:39.793Z,0
2017-11-05T08:04:20.273Z,0
2017-11-05T08:05:00.615Z,0
2017-11-05T08:05:41.172Z,0
2017-11-05T08:06:21.493Z,0
2017-11-05T08:07:01.957Z,0
2017-11-05T08:07:42.551Z,0
2017-11-05T08:08:23.379Z,0
2017-11-05T08:09:03.647Z,0
2017-11-05T08:09:44.087Z,0
2017-11-05T08:10:24.693Z,0
2017-11-05T08:11:04.957Z,0
2017-11-05T08:14:40.897Z,0
2017-11-05T08:15:33.822Z,0
2017-11-05T08:16:27.033Z,0
2017-11-05T08:17:19.441Z,0
2017-11-05T08:18:12.087Z,0
2017-11-05T08:19:06.206Z,0
2017-11-05T08:19:59.500Z,0
2017-11-05T08:20:52.594Z,5
2017-11-05T08:21:46.621Z,5
2017-11-05T08:22:38.573Z,5
2017-11-05T08:23:32.675Z,5
2017-11-05T08:24:26.125Z,5
2017-11-05T08:25:20.500Z,5
2017-11-05T08:26:13.325Z,5
2017-11-05T08:27:05.371Z,5
2017-11-05T08:27:57.515Z,5
2017-11-05T08:28:50.120Z,5
2017-11-05T08:29:42.493Z,5
2017-11-05T08:30:34.634Z,5
2017-11-05T08:31:26.612Z,5
2017-11-05T08:32:19.949Z,5
2017-11-05T08:33:11.920Z,5
2017-11-05T08:34:05.090Z,5
2017-11-05T08:34:58.673Z,5
2017-11-05T08:35:52.379Z,5
2017-11-05T08:36:44.749Z,5
2017-11-05T08:37:37.562Z,5
2017-11-05T08:38:30.116Z,5
2017-11-05T08:39:23.196Z,5
2017-11-05T08:40:15.521Z,5
2017-11-05T08:41:09.053Z,10
2017-11-05T08:42:02.970Z,10
2017-11-05T08:42:55.230Z,10
2017-11-05T08:43:47.663Z,10
2017-11-05T08:44:43.431Z,10
2017-11-05T08:45:42.166Z,10
2017-11-05T08:46:38.588Z,10
2017-11-05T08:47:31.028Z,10
2017-11-05T08:48:24.085Z,10
2017-11-05T08:49:15.989Z,10
2017-11-05T08:50:08.318Z,10
2017-11-05T08:51:00.948Z,10
2017-11-05T08:51:53.724Z,10
2017-11-05T08:52:46.135Z,10
2017-11-05T08:53:40.112Z,10
2017-11-05T08:54:32.477Z,10
2017-11-05T08:55:24.542Z,10
2017-11-05T08:56:17.426Z,10
2017-11-05T08:57:09.697Z,10
2017-11-05T08:58:02.289Z,10
2017-11-05T08:58:54.275Z,10
2017-11-05T08:59:46.703Z,10
2017-11-05T09:00:38.955Z,10
2017-11-05T09:01:31.542Z,10
2017-11-05T09:02:24.303Z,10
2017-11-05T09:03:16.441Z,15
2017-11-05T09:04:09.041Z,15
2017-11-05T09:05:03.129Z,15
2017-11-05T09:05:54.424Z,15
2017-11-05T09:08:21.007Z,15
2017-11-05T09:09:14.107Z,15
2017-11-05T09:10:06.239Z,15
2017-11-05T09:10:59.204Z,15
2017-11-05T09:11:51.550Z,20
2017-11-05T09:12:44.745Z,20
2017-11-05T09:13:36.764Z,20
2017-11-05T09:14:30.170Z,20
2017-11-05T09:15:22.474Z,25
2017-11-05T09:16:16.088Z,25
2017-11-05T09:17:09.312Z,25
2017-11-05T09:18:01.605Z,25
2017-11-05T09:18:54.316Z,25
2017-11-05T09:19:48.253Z,25
2017-11-05T09:20:41.087Z,25
2017-11-05T09:21:34.160Z,20
2017-11-05T09:22:26.543Z,20
2017-11-05T09:23:19.014Z,20
2017-11-05T09:24:12.032Z,20
2017-11-05T09:25:04.499Z,20
2017-11-05T09:25:56.411Z,20
2017-11-05T09:26:48.604Z,20
2017-11-05T09:27:42.047Z,20
2017-11-05T09:28:34.646Z,25
2017-11-05T09:29:27.095Z,20
2017-11-05T09:30:20.070Z,20
2017-11-05T09:31:12.518Z,20
2017-11-05T09:32:04.646Z,20
2017-11-05T09:32:56.220Z,20
2017-11-05T09:33:48.881Z,20
2017-11-05T09:36:21.585Z,20
2017-11-05T09:37:14.854Z,20
2017-11-05T09:38:07.709Z,20
2017-11-05T09:38:59.913Z,20
2017-11-05T09:39:52.198Z,20
2017-11-05T09:40:43.792Z,20
2017-11-05T09:41:36.685Z,20
2017-11-05T09:42:29.179Z,25
2017-11-05T09:43:21.457Z,25
2017-11-05T09:44:14.179Z,25
2017-11-05T09:45:06.718Z,30
2017-11-05T09:45:59.817Z,30
2017-11-05T09:46:51.192Z,30
2017-11-05T09:47:36.267Z,35
2017-11-05T09:48:16.777Z,35
2017-11-05T09:48:57.200Z,35
2017-11-05T09:49:37.740Z,35
2017-11-05T09:50:18.170Z,35
2017-11-05T09:50:58.475Z,35
2017-11-05T09:51:39.038Z,35
2017-11-05T09:52:19.402Z,35
2017-11-05T09:52:59.808Z,35
2017-11-05T09:53:40.277Z,35
2017-11-05T09:54:20.716Z,35
2017-11-05T09:55:01.149Z,35
2017-11-05T09:55:41.519Z,35
2017-11-05T09:56:22.017Z,35
2017-11-05T09:57:02.398Z,35
2017-11-05T09:57:42.776Z,35
2017-11-05T09:58:23.205Z,35
2017-11-05T09:59:03.607Z,35
2017-11-05T09:59:44.056Z,40
2017-11-05T10:00:24.428Z,40
2017-11-05T10:01:04.818Z,40
2017-11-05T10:01:45.250Z,40
2017-11-05T10:02:25.687Z,40
2017-11-05T10:03:06.076Z,40
2017-11-05T10:41:33.150Z,45
2017-11-05T10:42:13.620Z,45
2017-11-05T10:42:53.934Z,45
2017-11-05T10:43:34.341Z,45
2017-11-05T10:44:14.711Z,45
2017-11-05T10:44:55.098Z,45
2017-11-05T10:45:35.569Z,45
2017-11-05T10:46:15.972Z,45
2017-11-05T10:46:56.311Z,45
2017-11-05T10:47:36.707Z,45
2017-11-05T10:48:17.093Z,45
2017-11-05T10:48:57.511Z,50
2017-11-05T10:49:37.954Z,50
2017-11-05T10:50:18.347Z,50
2017-11-05T10:50:58.754Z,45
2017-11-05T10:51:39.153Z,50
2017-11-05T10:52:19.580Z,45
2017-11-05T10:52:59.948Z,45
2017-11-05T10:53:40.357Z,45
2017-11-05T10:54:20.807Z,45
2017-11-05T10:55:01.147Z,45
2017-11-05T10:55:41.632Z,45
2017-11-05T10:56:22.022Z,45
2017-11-05T10:57:02.414Z,45
2017-11-05T10:57:42.833Z,45
2017-11-05T10:58:23.243Z,45
2017-11-05T10:59:03.661Z,45
2017-11-05T10:59:44.205Z,45
2017-11-05T11:00:24.605Z,45
2017-11-05T11:01:05.003Z,45
2017-11-05T11:01:45.395Z,45
2017-11-05T11:02:25.798Z,45
2017-11-05T11:03:06.203Z,45
2017-11-05T11:03:46.625Z,50
2017-11-05T11:04:27.118Z,50
2017-11-05T11:05:07.583Z,50
2017-11-05T11:05:47.991Z,50
2017-11-05T11:06:28.346Z,45
2017-11-05T11:07:08.749Z,45
2017-11-05T11:07:49.208Z,45
2017-11-05T11:08:29.673Z,45
2017-11-05T11:09:10.035Z,45
2017-11-05T11:09:50.460Z,45
2017-11-05T11:10:30.915Z,45
2017-11-05T11:11:11.289Z,45
2017-11-05T11:11:51.715Z,45
2017-11-05T11:12:32.120Z,45
2017-11-05T11:13:12.523Z,50
2017-11-05T11:13:52.911Z,50
2017-11-05T11:14:33.335Z,50
2017-11-05T11:15:13.703Z,45
2017-11-05T11:15:54.120Z,50
2017-11-05T11:16:34.499Z,50
2017-11-05T11:17:14.932Z,50
2017-11-05T11:17:55.347Z,50
2017-11-05T11:18:35.751Z,50
2017-11-05T11:19:16.200Z,50
2017-11-05T11:19:56.587Z,50
2017-11-05T11:20:36.930Z,45
2017-11-05T11:21:17.412Z,45
2017-11-05T11:21:57.818Z,45
2017-11-05T11:22:38.189Z,45
2017-11-05T11:23:18.562Z,45
2017-11-05T11:23:59.125Z,45
2017-11-05T11:24:39.533Z,45
2017-11-05T11:25:20.000Z,45
2017-11-05T11:26:00.376Z,45
2017-11-05T11:26:40.804Z,50
2017-11-05T11:27:21.210Z,45
2017-11-05T11:28:01.637Z,45
2017-11-05T11:28:42.154Z,50
2017-11-05T11:29:22.560Z,45
2017-11-05T11:30:05.651Z,45
2017-11-05T11:30:46.062Z,45
2017-11-05T11:31:26.462Z,45
2017-11-05T11:32:06.897Z,45
2017-11-05T11:32:47.258Z,45
2017-11-05T11:33:27.713Z,45
2017-11-05T11:34:08.134Z,45
2017-11-05T11:34:48.498Z,40
2017-11-05T11:35:28.895Z,45
2017-11-05T11:36:09.286Z,45